Time;durP1;ratioP1;P1;durP2;ratioP2;P2;SDS_P1;SDS_P2;PMS_P1;PMS_P2;Temp;Humidity;BMP_temperature;BMP_pressure;BME280_temperature;BME280_humidity;BME280_pressure;Samples;Min_cycle;Max_cycle;Signal;HPM_P1;HPM_P2
2022/08/05 00:00:40;;;;;;;;;;;;;;;30.11;38.91;98617.31;2061782;28;20076;-70
2022/08/05 00:01:40;;;;;;;;;;;;;;;30.10;38.78;98621.16;2067228;28;19929;-70
2022/08/05 00:02:42;;;;;;;;;;;;;;;30.11;38.78;98620.06;2065808;28;19936;-68
2022/08/05 00:03:43;;;;;;;;;;;;;;;30.13;39.16;98622.53;2065983;28;19933;-70
2022/08/05 00:04:44;;;;;;;;;;;;;;;30.12;38.80;98615.44;2072733;28;20445;-70
2022/08/05 00:05:45;;;;;;;;;;;;;;;30.10;39.03;98620.34;2069186;28;20024;-69
2022/08/05 00:06:46;;;;;;;;;;;;;;;30.13;38.84;98619.78;2061722;28;21288;-68
2022/08/05 00:07:48;;;;;;;;;;;;;;;30.17;38.74;98615.38;2066221;28;19928;-69
2022/08/05 00:08:50;;;;;;;;;;;;;;;30.13;38.89;98620.59;2066353;28;19925;-68
2022/08/05 00:09:50;;;;;;;;;;;;;;;30.11;38.69;98621.97;2065936;28;20418;-68
2022/08/05 00:10:52;;;;;;;;;;;;;;;30.12;39.03;98612.69;2069209;28;20028;-70
2022/08/05 00:11:53;;;;;;;;;;;;;;;30.12;38.80;98610.78;2068283;28;19933;-68
2022/08/05 00:12:54;;;;;;;;;;;;;;;30.12;38.80;98616.25;2070253;28;19939;-68
2022/08/05 00:13:55;;;;;;;;;;;;;;;30.09;38.77;98614.06;2067355;28;19940;-69
2022/08/05 00:14:56;;;;;;;;;;;;;;;30.09;38.60;98614.06;2069659;28;19983;-69
2022/08/05 00:15:57;;;;;;;;;;;;;;;30.10;38.92;98614.88;2066698;28;20346;-68
2022/08/05 00:16:58;;;;;;;;;;;;;;;30.13;38.75;98615.13;2062141;28;19929;-69
2022/08/05 00:17:59;;;;;;;;;;;;;;;30.12;38.80;98615.44;2066085;28;20370;-69
2022/08/05 00:19:00;;;;;;;;;;;;;;;30.04;39.02;98612.16;2063779;28;19932;-70
2022/08/05 00:20:01;;;;;;;;;;;;;;;30.07;38.94;98610.78;2066379;28;19956;-69
2022/08/05 00:21:03;;;;;;;;;;;;;;;30.03;38.93;98605.06;2062924;28;20011;-68
2022/08/05 00:22:04;;;;;;;;;;;;;;;30.01;38.83;98610.00;2065676;28;19940;-68
2022/08/05 00:23:06;;;;;;;;;;;;;;;29.99;39.02;98614.09;2067843;28;19925;-68
2022/08/05 00:24:08;;;;;;;;;;;;;;;29.99;39.12;98609.44;2062693;28;20056;-73
2022/08/05 00:25:08;;;;;;;;;;;;;;;30.01;39.09;98617.38;2064519;28;20476;-74
2022/08/05 00:26:10;;;;;;;;;;;;;;;29.99;39.17;98614.91;2068349;28;19925;-72
2022/08/05 00:27:11;;;;;;;;;;;;;;;29.99;39.05;98612.19;2062825;28;19929;-74
2022/08/05 00:28:12;;;;;;;;;;;;;;;30.00;38.81;98604.78;2066837;28;20393;-73
2022/08/05 00:29:13;;;;;;;;;;;;;;;29.98;39.08;98613.28;2063313;28;20655;-74
2022/08/05 00:30:14;;;;;;;;;;;;;;;30.00;38.97;98607.53;2067496;28;20063;-74
2022/08/05 00:31:15;;;;;;;;;;;;;;;29.99;38.91;98608.63;2063117;28;20518;-74
2022/08/05 00:32:16;;;;;;;;;;;;;;;30.01;38.92;98607.25;2061862;28;20089;-74
2022/08/05 00:33:17;;;;;;;;;;;;;;;29.99;38.81;98608.63;2064253;28;20008;-74
2022/08/05 00:34:19;;;;;;;;;;;;;;;29.98;38.91;98601.53;2067010;28;20921;-74
2022/08/05 00:35:19;;;;;;;;;;;;;;;29.99;38.94;98606.72;2067441;28;20861;-73
2022/08/05 00:36:23;;;;;;;;;;;;;;;29.98;38.84;98599.63;2069244;28;19929;-72
2022/08/05 00:37:24;;;;;;;;;;;;;;;29.98;38.76;98599.63;2061980;28;20028;-74
2022/08/05 00:38:26;;;;;;;;;;;;;;;29.97;38.89;98606.16;2062317;28;20336;-74
2022/08/05 00:39:27;;;;;;;;;;;;;;;29.98;38.88;98602.34;2064189;28;19925;-73
2022/08/05 00:40:29;;;;;;;;;;;;;;;29.96;39.00;98601.81;2060737;28;20204;-74
2022/08/05 00:41:30;;;;;;;;;;;;;;;29.97;38.81;98600.69;2068820;28;19933;-70
2022/08/05 00:42:33;;;;;;;;;;;;;;;29.97;38.90;98597.97;2070976;28;20096;-70
2022/08/05 00:43:33;;;;;;;;;;;;;;;29.94;38.97;98605.91;2068076;28;19933;-69
2022/08/05 00:44:35;;;;;;;;;;;;;;;29.94;38.94;98597.72;2072129;28;20366;-70
2022/08/05 00:45:35;;;;;;;;;;;;;;;29.89;39.00;98603.19;2067726;28;19928;-70
2022/08/05 00:46:37;;;;;;;;;;;;;;;29.91;39.12;98606.47;2069405;28;20417;-69
2022/08/05 00:47:39;;;;;;;;;;;;;;;29.88;39.22;98602.38;2066167;28;19936;-68
2022/08/05 00:48:40;;;;;;;;;;;;;;;29.90;39.21;98602.94;2067037;28;20367;-68
2022/08/05 00:49:41;;;;;;;;;;;;;;;29.89;39.35;98604.00;2064109;28;19929;-68
2022/08/05 00:50:44;;;;;;;;;;;;;;;29.91;39.26;98604.56;2068819;28;20019;-68
2022/08/05 00:51:44;;;;;;;;;;;;;;;29.91;39.29;98601.00;2067401;28;19933;-70
2022/08/05 00:52:46;;;;;;;;;;;;;;;29.92;39.60;98600.75;2060404;28;20501;-69
2022/08/05 00:53:48;;;;;;;;;;;;;;;29.91;39.41;98599.09;2064091;28;19936;-70
2022/08/05 00:54:50;;;;;;;;;;;;;;;29.93;39.27;98599.63;2068915;28;19932;-70
2022/08/05 00:55:50;;;;;;;;;;;;;;;29.95;39.35;98602.91;2068309;28;19929;-69
2022/08/05 00:56:52;;;;;;;;;;;;;;;30.00;39.14;98599.31;2067458;28;19935;-70
2022/08/05 00:57:53;;;;;;;;;;;;;;;29.97;39.30;98600.69;2070463;28;20370;-69
2022/08/05 00:58:54;;;;;;;;;;;;;;;29.94;39.26;98598.53;2066043;28;19932;-68
2022/08/05 00:59:55;;;;;;;;;;;;;;;29.95;39.25;98594.72;2062787;28;19975;-68
2022/08/05 01:00:56;;;;;;;;;;;;;;;29.91;39.46;98595.53;2068564;28;20390;-68
2022/08/05 01:01:57;;;;;;;;;;;;;;;29.90;39.64;98599.38;2064096;28;20516;-68
2022/08/05 01:02:59;;;;;;;;;;;;;;;29.93;39.32;98605.09;2065810;28;20175;-69
2022/08/05 01:04:00;;;;;;;;;;;;;;;29.96;39.43;98599.06;2064045;28;20612;-71
2022/08/05 01:05:01;;;;;;;;;;;;;;;29.97;39.11;98600.69;2064796;28;19933;-70
2022/08/05 01:06:02;;;;;;;;;;;;;;;30.00;39.20;98607.53;2064374;28;20362;-69
2022/08/05 01:07:03;;;;;;;;;;;;;;;29.97;39.33;98597.97;2067769;28;19925;-70
2022/08/05 01:08:05;;;;;;;;;;;;;;;29.97;39.23;98603.44;2063947;28;19936;-70
2022/08/05 01:09:07;;;;;;;;;;;;;;;29.99;39.24;98606.72;2070775;28;19933;-69
2022/08/05 01:10:10;;;;;;;;;;;;;;;29.99;39.33;98603.97;2064470;28;20053;-68
2022/08/05 01:11:12;;;;;;;;;;;;;;;29.97;39.11;98608.09;2065705;28;19929;-68
2022/08/05 01:12:17;;;;;;;;;;;;;;;29.96;39.38;98604.53;2063349;28;20291;-69
2022/08/05 01:13:33;;;;;;;;;;;;;;;29.99;39.23;98605.91;2066972;28;20570;-70
2022/08/05 01:14:37;;;;;;;;;;;;;;;29.99;39.11;98603.97;2064677;28;20424;-69
2022/08/05 01:15:40;;;;;;;;;;;;;;;30.00;39.10;98600.13;2071065;28;21884;-69
2022/08/05 01:16:47;;;;;;;;;;;;;;;29.98;39.15;98596.88;2060829;28;20639;-70
2022/08/05 01:17:49;;;;;;;;;;;;;;;30.00;39.02;98605.59;2065149;28;19929;-69
2022/08/05 01:18:53;;;;;;;;;;;;;;;29.99;39.28;98597.69;2066636;28;19925;-68
2022/08/05 01:19:59;;;;;;;;;;;;;;;29.93;39.21;98596.91;2066223;28;20492;-68
2022/08/05 01:21:07;;;;;;;;;;;;;;;30.00;38.94;98602.06;2067554;28;19937;-70
2022/08/05 01:22:22;;;;;;;;;;;;;;;29.91;39.18;98599.09;2073265;28;19928;-68
2022/08/05 01:23:29;;;;;;;;;;;;;;;29.92;39.39;98602.63;2074251;28;20761;-70
2022/08/05 01:24:40;;;;;;;;;;;;;;;29.93;39.29;98598.81;2065758;28;19933;-68
2022/08/05 01:25:53;;;;;;;;;;;;;;;29.93;39.31;98605.09;2067318;28;19936;-69
2022/08/05 01:26:58;;;;;;;;;;;;;;;29.86;39.45;98599.09;2068163;28;19939;-68
2022/08/05 01:28:11;;;;;;;;;;;;;;;29.88;39.61;98601.56;2066374;28;19929;-68
2022/08/05 01:29:15;;;;;;;;;;;;;;;29.86;39.49;98599.09;2062832;28;19929;-69
2022/08/05 01:30:17;;;;;;;;;;;;;;;29.90;39.55;98599.38;2069567;28;19940;-69
2022/08/05 01:31:23;;;;;;;;;;;;;;;29.89;39.42;98595.81;2062475;28;19940;-68
2022/08/05 01:32:26;;;;;;;;;;;;;;;29.93;39.45;98599.63;2066971;28;19928;-71
2022/08/05 01:33:30;;;;;;;;;;;;;;;29.93;39.40;98596.91;2067340;28;19933;-68
2022/08/05 01:34:34;;;;;;;;;;;;;;;29.91;39.46;98590.88;2066727;28;19936;-68
2022/08/05 01:35:38;;;;;;;;;;;;;;;29.93;39.50;98598.81;2068406;28;19940;-70
2022/08/05 01:36:43;;;;;;;;;;;;;;;29.90;39.57;98597.47;2062278;28;20784;-69
2022/08/05 01:37:44;;;;;;;;;;;;;;;29.86;39.72;98603.75;2065940;28;19940;-69
2022/08/05 01:38:47;;;;;;;;;;;;;;;29.86;39.64;98599.09;2060110;28;21521;-69
2022/08/05 01:39:49;;;;;;;;;;;;;;;29.86;39.70;98599.09;2070159;28;20006;-69
2022/08/05 01:40:52;;;;;;;;;;;;;;;29.82;39.63;98600.75;2066022;28;20561;-70
2022/08/05 01:41:54;;;;;;;;;;;;;;;29.87;39.69;98602.69;2066849;28;20008;-69
2022/08/05 01:42:56;;;;;;;;;;;;;;;29.89;39.66;98603.19;2062062;28;20409;-67
2022/08/05 01:44:00;;;;;;;;;;;;;;;29.90;39.71;98602.13;2068523;28;20234;-69
2022/08/05 01:45:02;;;;;;;;;;;;;;;29.90;39.85;98600.19;2060083;28;20353;-68
2022/08/05 01:46:04;;;;;;;;;;;;;;;29.86;39.81;98599.09;2066170;28;20886;-70
2022/08/05 01:47:06;;;;;;;;;;;;;;;29.88;39.96;98605.13;2068915;28;19936;-70
2022/08/05 01:48:08;;;;;;;;;;;;;;;29.84;39.74;98601.31;2070094;28;19932;-69
2022/08/05 01:49:11;;;;;;;;;;;;;;;29.86;39.59;98606.47;2064246;28;20166;-70
2022/08/05 01:50:14;;;;;;;;;;;;;;;29.86;39.71;98607.31;2068156;28;19932;-70
2022/08/05 01:51:15;;;;;;;;;;;;;;;29.87;39.72;98603.50;2065716;28;19936;-70
2022/08/05 01:52:18;;;;;;;;;;;;;;;29.88;39.65;98607.84;2063391;28;20022;-68
2022/08/05 01:53:20;;;;;;;;;;;;;;;29.88;40.05;98612.50;2067009;28;20958;-69
2022/08/05 01:54:23;;;;;;;;;;;;;;;29.88;39.84;98613.31;2068192;28;19935;-68
2022/08/05 01:55:25;;;;;;;;;;;;;;;29.88;39.61;98609.75;2067077;28;19932;-70
2022/08/05 01:56:29;;;;;;;;;;;;;;;29.91;39.90;98611.94;2060201;28;19948;-68
2022/08/05 01:57:31;;;;;;;;;;;;;;;29.91;39.63;98606.47;2065857;28;20521;-69
2022/08/05 01:58:33;;;;;;;;;;;;;;;29.93;39.61;98609.75;2063523;28;20311;-68
2022/08/05 01:59:36;;;;;;;;;;;;;;;29.91;39.72;98612.75;2064092;28;20414;-70
2022/08/05 02:00:39;;;;;;;;;;;;;;;29.94;39.70;98609.47;2065041;28;20071;-69
2022/08/05 02:01:41;;;;;;;;;;;;;;;29.94;39.76;98611.38;2065058;28;19929;-69
2022/08/05 02:02:45;;;;;;;;;;;;;;;29.95;39.72;98604.81;2065910;28;20407;-70
2022/08/05 02:03:46;;;;;;;;;;;;;;;29.96;39.62;98609.19;2068249;28;19929;-69
2022/08/05 02:04:48;;;;;;;;;;;;;;;29.92;39.75;98606.22;2067005;28;19933;-69
2022/08/05 02:05:50;;;;;;;;;;;;;;;29.93;39.56;98605.09;2071310;28;20438;-68
2022/08/05 02:06:52;;;;;;;;;;;;;;;29.94;39.73;98600.44;2066942;28;20026;-70
2022/08/05 02:07:53;;;;;;;;;;;;;;;29.91;39.92;98609.22;2072026;28;20330;-69
2022/08/05 02:08:54;;;;;;;;;;;;;;;29.95;39.68;98607.53;2069430;28;20449;-69
2022/08/05 02:09:55;;;;;;;;;;;;;;;29.94;39.79;98604.00;2061698;28;20415;-69
2022/08/05 02:10:59;;;;;;;;;;;;;;;29.93;40.04;98610.56;2067041;28;20020;-68
2022/08/05 02:12:04;;;;;;;;;;;;;;;29.95;39.80;98602.91;2062601;28;19929;-68
2022/08/05 02:13:10;;;;;;;;;;;;;;;29.92;39.84;98600.75;2060410;28;19960;-69
2022/08/05 02:14:11;;;;;;;;;;;;;;;29.95;39.77;98611.13;2067312;28;19936;-68
2022/08/05 02:15:17;;;;;;;;;;;;;;;29.96;39.60;98610.00;2065060;28;20913;-70
2022/08/05 02:16:19;;;;;;;;;;;;;;;29.93;39.90;98610.56;2067031;28;20577;-68
2022/08/05 02:17:25;;;;;;;;;;;;;;;29.94;39.82;98611.38;2064632;28;20478;-69
2022/08/05 02:18:29;;;;;;;;;;;;;;;29.95;39.95;98607.53;2065991;28;21144;-68
2022/08/05 02:19:32;;;;;;;;;;;;;;;29.95;39.74;98604.81;2064250;28;20019;-69
2022/08/05 02:20:39;;;;;;;;;;;;;;;29.91;40.04;98606.47;2065489;28;21506;-68
2022/08/05 02:21:43;;;;;;;;;;;;;;;29.93;39.81;98602.38;2061348;28;19964;-70
2022/08/05 02:22:46;;;;;;;;;;;;;;;29.95;39.82;98608.38;2063831;28;23637;-68
2022/08/05 02:23:49;;;;;;;;;;;;;;;29.89;39.83;98601.28;2067945;28;19940;-68
2022/08/05 02:24:52;;;;;;;;;;;;;;;29.87;40.18;98603.50;2061907;28;20422;-68
2022/08/05 02:25:53;;;;;;;;;;;;;;;29.90;40.21;98604.84;2064729;28;20425;-68
2022/08/05 02:26:58;;;;;;;;;;;;;;;29.86;40.16;98606.47;2070629;28;19952;-69
2022/08/05 02:28:00;;;;;;;;;;;;;;;29.82;40.32;98600.75;2068174;28;20525;-68
2022/08/05 02:29:02;;;;;;;;;;;;;;;29.85;40.37;98602.94;2061320;28;20258;-69
2022/08/05 02:30:02;;;;;;;;;;;;;;;29.84;40.29;98601.31;2068932;28;19929;-68
2022/08/05 02:31:07;;;;;;;;;;;;;;;29.83;40.42;98602.38;2060891;28;19929;-68
2022/08/05 02:32:10;;;;;;;;;;;;;;;29.83;40.24;98599.66;2069121;28;20391;-68
2022/08/05 02:33:15;;;;;;;;;;;;;;;29.82;40.32;98600.75;2063738;28;20209;-69
2022/08/05 02:34:18;;;;;;;;;;;;;;;29.81;40.49;98596.38;2064027;28;20697;-67
2022/08/05 02:35:21;;;;;;;;;;;;;;;29.82;40.63;98600.75;2059421;28;20403;-68
2022/08/05 02:36:23;;;;;;;;;;;;;;;29.84;40.51;98593.13;2064235;28;19925;-67
2022/08/05 02:37:25;;;;;;;;;;;;;;;29.82;40.63;98598.84;2064168;28;20215;-69
2022/08/05 02:38:28;;;;;;;;;;;;;;;29.87;40.53;98602.69;2068949;28;20421;-69
2022/08/05 02:39:33;;;;;;;;;;;;;;;29.83;40.44;98599.66;2058116;28;19968;-69
2022/08/05 02:40:34;;;;;;;;;;;;;;;29.77;40.52;98600.78;2065154;28;20054;-68
2022/08/05 02:41:36;;;;;;;;;;;;;;;29.79;40.34;98599.41;2060995;28;22155;-68
2022/08/05 02:42:38;;;;;;;;;;;;;;;29.78;40.67;98599.66;2063821;28;21029;-68
2022/08/05 02:43:40;;;;;;;;;;;;;;;29.77;40.34;98596.13;2068206;28;19968;-68
2022/08/05 02:44:42;;;;;;;;;;;;;;;29.80;40.76;98594.75;2071393;28;19929;-68
2022/08/05 02:45:44;;;;;;;;;;;;;;;29.81;40.59;98590.91;2066226;28;19995;-70
2022/08/05 02:46:47;;;;;;;;;;;;;;;29.79;40.82;98593.94;2069877;28;20423;-69
2022/08/05 02:47:49;;;;;;;;;;;;;;;29.79;40.86;98598.59;2071213;28;20024;-69
2022/08/05 02:48:51;;;;;;;;;;;;;;;29.83;40.56;98594.19;2069457;28;20488;-69
2022/08/05 02:49:53;;;;;;;;;;;;;;;29.80;40.49;98595.56;2067089;28;21146;-69
2022/08/05 02:50:54;;;;;;;;;;;;;;;29.81;40.73;98590.91;2064252;28;20375;-68
2022/08/05 02:51:57;;;;;;;;;;;;;;;29.81;40.44;98591.75;2064577;28;20441;-69
2022/08/05 02:52:58;;;;;;;;;;;;;;;29.81;40.99;98588.19;2065886;28;20302;-67
2022/08/05 02:54:00;;;;;;;;;;;;;;;29.80;40.75;98589.28;2061747;28;19935;-68
2022/08/05 02:55:01;;;;;;;;;;;;;;;29.80;40.99;98592.00;2059324;28;20104;-68
2022/08/05 02:56:04;;;;;;;;;;;;;;;29.81;40.99;98594.47;2069177;28;20186;-67
2022/08/05 02:57:07;;;;;;;;;;;;;;;29.80;41.09;98592.00;2065349;28;19929;-68
2022/08/05 02:58:08;;;;;;;;;;;;;;;29.79;41.35;98593.94;2067560;28;19964;-69
2022/08/05 02:59:10;;;;;;;;;;;;;;;29.82;41.26;98589.84;2062261;28;19933;-69
2022/08/05 03:00:12;;;;;;;;;;;;;;;29.81;41.21;98585.44;2053937;28;19929;-68
2022/08/05 03:01:16;;;;;;;;;;;;;;;29.84;41.12;98593.91;2059987;28;20166;-67
2022/08/05 03:02:19;;;;;;;;;;;;;;;29.86;40.96;98582.69;2061447;28;19941;-69
2022/08/05 03:03:20;;;;;;;;;;;;;;;29.87;40.78;98581.63;2066894;28;19929;-70
2022/08/05 03:04:22;;;;;;;;;;;;;;;29.89;40.83;98581.31;2067727;28;19983;-74
2022/08/05 03:05:22;;;;;;;;;;;;;;;29.86;41.03;98579.97;2069308;28;19929;-72
2022/08/05 03:06:25;;;;;;;;;;;;;;;29.89;40.82;98584.88;2063553;28;19959;-74
2022/08/05 03:07:26;;;;;;;;;;;;;;;29.90;40.54;98581.06;2061744;28;19929;-73
2022/08/05 03:08:28;;;;;;;;;;;;;;;29.93;40.65;98585.97;2067095;28;20498;-73
2022/08/05 03:09:29;;;;;;;;;;;;;;;29.90;40.51;98586.53;2068912;28;20433;-72
2022/08/05 03:10:30;;;;;;;;;;;;;;;29.92;40.30;98581.59;2063094;28;19929;-74
2022/08/05 03:11:31;;;;;;;;;;;;;;;29.91;40.41;98576.41;2061633;28;21891;-74
2022/08/05 03:12:34;;;;;;;;;;;;;;;29.92;40.53;98573.41;2063728;28;20893;-73
2022/08/05 03:13:38;;;;;;;;;;;;;;;29.90;40.61;98578.31;2066733;28;19940;-72
2022/08/05 03:14:40;;;;;;;;;;;;;;;29.88;41.09;98579.69;2060965;28;19929;-74
2022/08/05 03:15:41;;;;;;;;;;;;;;;29.89;40.55;98581.31;2066593;28;19929;-72
2022/08/05 03:16:42;;;;;;;;;;;;;;;29.92;40.59;98581.59;2069088;28;19992;-72
2022/08/05 03:17:44;;;;;;;;;;;;;;;29.91;40.61;98579.13;2073873;28;19933;-72
2022/08/05 03:18:46;;;;;;;;;;;;;;;29.89;41.03;98576.66;2069308;28;19937;-72
2022/08/05 03:19:46;;;;;;;;;;;;;;;29.91;40.88;98579.94;2071334;28;20322;-72
2022/08/05 03:20:48;;;;;;;;;;;;;;;29.92;41.04;98578.88;2068610;28;19981;-73
2022/08/05 03:21:48;;;;;;;;;;;;;;;29.84;41.26;98573.97;2067582;28;20386;-73
2022/08/05 03:22:50;;;;;;;;;;;;;;;29.86;41.07;98577.22;2062536;28;19961;-73
2022/08/05 03:23:51;;;;;;;;;;;;;;;29.90;41.33;98581.06;2052892;28;19940;-73
2022/08/05 03:24:53;;;;;;;;;;;;;;;29.87;41.16;98578.88;2063345;28;20076;-73
2022/08/05 03:25:54;;;;;;;;;;;;;;;29.90;41.33;98582.97;2069986;28;20398;-72
2022/08/05 03:26:56;;;;;;;;;;;;;;;29.83;41.58;98584.06;2063936;28;20032;-74
2022/08/05 03:27:56;;;;;;;;;;;;;;;29.75;41.88;98576.44;2065810;28;19929;-73
2022/08/05 03:28:58;;;;;;;;;;;;;;;29.72;41.60;98579.72;2067207;28;19975;-73
2022/08/05 03:29:58;;;;;;;;;;;;;;;29.77;42.01;98578.91;2062508;28;20184;-74
2022/08/05 03:31:01;;;;;;;;;;;;;;;29.82;41.71;98579.72;2066951;28;19933;-74
2022/08/05 03:32:02;;;;;;;;;;;;;;;29.87;41.80;98575.34;2069157;28;20952;-73
2022/08/05 03:33:05;;;;;;;;;;;;;;;29.88;41.31;98574.22;2064670;28;20446;-72
2022/08/05 03:34:06;;;;;;;;;;;;;;;29.86;41.40;98579.16;2061571;28;19929;-74
2022/08/05 03:35:08;;;;;;;;;;;;;;;29.87;41.58;98576.16;2061934;28;19929;-73
2022/08/05 03:36:09;;;;;;;;;;;;;;;29.88;41.87;98574.22;2068448;28;19940;-72
2022/08/05 03:37:11;;;;;;;;;;;;;;;29.81;42.18;98580.81;2067840;28;19929;-73
2022/08/05 03:38:12;;;;;;;;;;;;;;;29.81;41.77;98579.97;2066172;28;20365;-72
2022/08/05 03:39:14;;;;;;;;;;;;;;;29.81;42.21;98578.09;2066621;28;19929;-73
2022/08/05 03:40:14;;;;;;;;;;;;;;;29.71;42.50;98580.03;2067547;28;20431;-72
2022/08/05 03:41:16;;;;;;;;;;;;;;;29.71;42.59;98583.56;2061845;28;19925;-73
2022/08/05 03:42:16;;;;;;;;;;;;;;;29.74;42.66;98577.53;2064165;28;19933;-73
2022/08/05 03:43:19;;;;;;;;;;;;;;;29.75;42.63;98583.81;2065755;28;19929;-72
2022/08/05 03:44:19;;;;;;;;;;;;;;;29.73;42.50;98583.31;2068770;28;20142;-72
2022/08/05 03:45:21;;;;;;;;;;;;;;;29.72;42.50;98576.19;2063616;28;21010;-73
2022/08/05 03:46:21;;;;;;;;;;;;;;;29.71;42.53;98575.38;2065735;28;20089;-73
2022/08/05 03:47:23;;;;;;;;;;;;;;;29.71;42.56;98580.84;2064803;28;19937;-72
2022/08/05 03:48:25;;;;;;;;;;;;;;;29.71;43.05;98572.63;2065739;28;20896;-72
2022/08/05 03:49:26;;;;;;;;;;;;;;;29.66;42.73;98578.13;2065748;28;19932;-73
2022/08/05 03:50:32;;;;;;;;;;;;;;;29.65;42.98;98584.69;2069000;28;19929;-72
2022/08/05 03:51:36;;;;;;;;;;;;;;;29.68;42.98;98580.59;2064830;28;21408;-73
2022/08/05 03:52:49;;;;;;;;;;;;;;;29.67;43.09;98584.41;2066658;28;19940;-73
2022/08/05 03:53:53;;;;;;;;;;;;;;;29.64;43.04;98587.69;2063992;28;20788;-72
2022/08/05 03:54:56;;;;;;;;;;;;;;;29.61;43.51;98581.69;2061244;28;19933;-73
2022/08/05 03:56:00;;;;;;;;;;;;;;;29.57;43.40;98580.56;2070986;28;19935;-74
2022/08/05 03:57:01;;;;;;;;;;;;;;;29.65;43.05;98581.16;2060691;28;20003;-73
2022/08/05 03:58:04;;;;;;;;;;;;;;;29.61;42.78;98581.69;2062603;28;19964;-74
2022/08/05 03:59:06;;;;;;;;;;;;;;;29.62;43.10;98577.84;2061824;28;20392;-73
2022/08/05 04:00:09;;;;;;;;;;;;;;;29.70;42.91;98581.09;2066759;28;19978;-72
2022/08/05 04:01:12;;;;;;;;;;;;;;;29.68;42.89;98581.41;2065136;28;19940;-73
2022/08/05 04:02:14;;;;;;;;;;;;;;;29.71;42.78;98582.75;2067242;28;19929;-72
2022/08/05 04:03:17;;;;;;;;;;;;;;;29.72;42.14;98582.47;2064652;28;19985;-73
2022/08/05 04:04:20;;;;;;;;;;;;;;;29.75;42.36;98576.44;2064030;28;20161;-73
2022/08/05 04:05:22;;;;;;;;;;;;;;;29.77;42.21;98581.66;2066761;28;20352;-72
2022/08/05 04:06:22;;;;;;;;;;;;;;;29.78;42.29;98575.91;2072307;28;19929;-73
2022/08/05 04:07:24;;;;;;;;;;;;;;;29.81;42.04;98575.34;2065559;28;19929;-73
2022/08/05 04:08:28;;;;;;;;;;;;;;;29.81;41.65;98583.56;2065612;28;19933;-72
2022/08/05 04:09:29;;;;;;;;;;;;;;;29.82;41.65;98584.38;2061174;28;19929;-74
2022/08/05 04:10:31;;;;;;;;;;;;;;;29.84;41.89;98579.44;2063899;28;21101;-73
2022/08/05 04:11:32;;;;;;;;;;;;;;;29.82;42.22;98573.44;2064026;28;19951;-73
2022/08/05 04:12:33;;;;;;;;;;;;;;;29.79;42.20;98577.53;2068836;28;19928;-73
2022/08/05 04:13:37;;;;;;;;;;;;;;;29.80;42.41;98584.63;2056997;28;20276;-73
2022/08/05 04:14:39;;;;;;;;;;;;;;;29.68;42.55;98581.41;2065532;28;19952;-72
2022/08/05 04:15:40;;;;;;;;;;;;;;;29.70;42.48;98581.09;2064958;28;20488;-72
2022/08/05 04:16:41;;;;;;;;;;;;;;;29.76;42.28;98580.00;2064221;28;20232;-73
2022/08/05 04:17:42;;;;;;;;;;;;;;;29.76;42.47;98580.81;2062183;28;19929;-71
2022/08/05 04:18:45;;;;;;;;;;;;;;;29.77;42.13;98585.19;2058231;28;20004;-73
2022/08/05 04:19:47;;;;;;;;;;;;;;;29.70;42.58;98583.84;2059145;28;20332;-72
2022/08/05 04:20:52;;;;;;;;;;;;;;;29.65;42.84;98590.16;2059388;28;20123;-73
2022/08/05 04:21:53;;;;;;;;;;;;;;;29.60;43.09;98584.66;2060443;28;19936;-74
2022/08/05 04:22:54;;;;;;;;;;;;;;;29.53;42.51;98584.97;2061663;28;19937;-74
2022/08/05 04:23:55;;;;;;;;;;;;;;;29.50;41.97;98579.22;2058546;28;20464;-74
2022/08/05 04:24:56;;;;;;;;;;;;;;;29.45;42.14;98588.25;2063754;28;19933;-73
2022/08/05 04:25:57;;;;;;;;;;;;;;;29.51;41.76;98587.16;2063376;28;19929;-74
2022/08/05 04:26:59;;;;;;;;;;;;;;;29.56;41.15;98595.34;2062694;28;19933;-72
2022/08/05 04:27:59;;;;;;;;;;;;;;;29.57;40.21;98596.16;2064004;28;20153;-75
2022/08/05 04:29:01;;;;;;;;;;;;;;;29.57;40.48;98588.78;2064524;28;20449;-72
2022/08/05 04:30:02;;;;;;;;;;;;;;;29.65;40.56;98589.34;2063402;28;19936;-75
2022/08/05 04:31:03;;;;;;;;;;;;;;;29.65;41.96;98592.88;2067517;28;20405;-74
2022/08/05 04:32:04;;;;;;;;;;;;;;;29.63;42.11;98595.06;2064463;28;20303;-73
2022/08/05 04:33:06;;;;;;;;;;;;;;;29.64;42.54;98590.41;2071018;28;19925;-73
2022/08/05 04:34:06;;;;;;;;;;;;;;;29.61;42.44;98586.28;2073363;28;20002;-73
2022/08/05 04:35:10;;;;;;;;;;;;;;;29.62;42.64;98598.88;2067463;28;19955;-72
2022/08/05 04:36:11;;;;;;;;;;;;;;;29.61;42.52;98591.75;2071704;28;19929;-72
2022/08/05 04:37:12;;;;;;;;;;;;;;;29.61;42.50;98594.50;2067554;28;19994;-73
2022/08/05 04:38:13;;;;;;;;;;;;;;;29.62;42.82;98599.69;2064955;28;23820;-73
2022/08/05 04:39:15;;;;;;;;;;;;;;;29.58;42.88;98595.88;2069357;28;20193;-73
2022/08/05 04:40:16;;;;;;;;;;;;;;;29.58;43.10;98597.78;2059694;28;20289;-73
2022/08/05 04:41:17;;;;;;;;;;;;;;;29.54;43.06;98592.06;2069384;28;21121;-72
2022/08/05 04:42:18;;;;;;;;;;;;;;;29.56;43.13;98598.06;2069014;28;19929;-72
2022/08/05 04:43:19;;;;;;;;;;;;;;;29.56;43.32;98600.81;2069881;28;19933;-73
2022/08/05 04:44:20;;;;;;;;;;;;;;;29.52;43.59;98602.44;2066340;28;19936;-74
2022/08/05 04:45:24;;;;;;;;;;;;;;;29.50;43.53;98596.44;2068896;28;19929;-73
2022/08/05 04:46:26;;;;;;;;;;;;;;;29.52;43.62;98596.16;2071043;28;19933;-73
2022/08/05 04:47:26;;;;;;;;;;;;;;;29.50;43.60;98601.06;2070576;28;20024;-72
2022/08/05 04:48:28;;;;;;;;;;;;;;;29.50;43.63;98596.44;2070148;28;20626;-73
2022/08/05 04:49:28;;;;;;;;;;;;;;;29.50;43.93;98599.16;2066516;28;20465;-74
2022/08/05 04:50:31;;;;;;;;;;;;;;;29.52;43.69;98599.72;2067661;28;20279;-73
2022/08/05 04:51:32;;;;;;;;;;;;;;;29.54;43.69;98600.25;2068099;28;19929;-72
2022/08/05 04:52:33;;;;;;;;;;;;;;;29.53;44.00;98598.63;2069149;28;20055;-73
2022/08/05 04:53:34;;;;;;;;;;;;;;;29.50;43.81;98599.16;2071934;28;20249;-72
2022/08/05 04:54:35;;;;;;;;;;;;;;;29.52;43.78;98605.19;2069216;28;19960;-73
2022/08/05 04:55:37;;;;;;;;;;;;;;;29.53;44.00;98601.38;2065032;28;19929;-72
2022/08/05 04:56:38;;;;;;;;;;;;;;;29.53;43.98;98606.00;2073132;28;20533;-73
2022/08/05 04:57:39;;;;;;;;;;;;;;;29.52;44.12;98609.81;2067593;28;20410;-72
2022/08/05 04:58:40;;;;;;;;;;;;;;;29.52;44.18;98610.63;2064503;28;20453;-73
2022/08/05 04:59:41;;;;;;;;;;;;;;;29.49;44.38;98605.72;2060886;28;19929;-73
2022/08/05 05:00:42;;;;;;;;;;;;;;;29.50;44.20;98601.06;2059361;28;20294;-74
2022/08/05 05:01:44;;;;;;;;;;;;;;;29.46;44.50;98606.28;2070812;28;19933;-71
2022/08/05 05:02:44;;;;;;;;;;;;;;;29.48;44.41;98601.38;2065200;28;19960;-73
2022/08/05 05:03:46;;;;;;;;;;;;;;;29.45;44.50;98599.19;2067112;28;19940;-72
2022/08/05 05:04:46;;;;;;;;;;;;;;;29.45;44.51;98599.19;2065407;28;20329;-73
2022/08/05 05:05:49;;;;;;;;;;;;;;;29.46;44.69;98600.00;2063493;28;19930;-73
2022/08/05 05:06:50;;;;;;;;;;;;;;;29.44;44.71;98602.19;2059789;28;20489;-73
2022/08/05 05:07:51;;;;;;;;;;;;;;;29.43;44.75;98598.66;2063659;28;20492;-74
2022/08/05 05:08:52;;;;;;;;;;;;;;;29.45;44.73;98598.34;2067876;28;20047;-73
2022/08/05 05:09:54;;;;;;;;;;;;;;;29.43;44.54;98595.91;2071381;28;20046;-74
2022/08/05 05:10:54;;;;;;;;;;;;;;;29.45;44.66;98598.34;2066089;28;19929;-73
2022/08/05 05:11:56;;;;;;;;;;;;;;;29.44;44.67;98596.72;2070477;28;19933;-72
2022/08/05 05:12:57;;;;;;;;;;;;;;;29.46;44.65;98600.00;2066267;28;19936;-73
2022/08/05 05:13:58;;;;;;;;;;;;;;;29.42;44.76;98598.91;2053741;28;21693;-73
2022/08/05 05:14:59;;;;;;;;;;;;;;;29.42;44.83;98599.75;2040723;28;20597;-73
2022/08/05 05:16:00;;;;;;;;;;;;;;;29.38;45.22;98598.66;2052267;28;19933;-73
2022/08/05 05:17:01;;;;;;;;;;;;;;;29.37;45.48;98597.84;2057152;28;19933;-73
2022/08/05 05:18:03;;;;;;;;;;;;;;;29.38;45.55;98601.38;2053716;28;20413;-73
2022/08/05 05:19:03;;;;;;;;;;;;;;;29.41;45.52;98603.56;2051077;28;20122;-73
2022/08/05 05:20:06;;;;;;;;;;;;;;;29.41;45.52;98603.56;2053234;28;20590;-73
2022/08/05 05:21:10;;;;;;;;;;;;;;;29.44;45.49;98596.72;2054671;28;20565;-73
2022/08/05 05:22:11;;;;;;;;;;;;;;;29.43;45.97;98597.84;2047347;28;19937;-73
2022/08/05 05:23:13;;;;;;;;;;;;;;;29.43;46.30;98601.38;2050772;28;20413;-74
2022/08/05 05:24:13;;;;;;;;;;;;;;;29.44;46.26;98599.47;2041022;28;20128;-73